sensor_id;sensor_type;location;lat;lon;timestamp;P1;durP1;ratioP1;P2;durP2;ratioP2
80746;SDS011;76868;50.218;14.322;2024-03-17T00:04:01;2.08;;;1.55;;
80746;SDS011;76868;50.218;14.322;2024-03-17T00:06:26;2.85;;;1.50;;
80746;SDS011;76868;50.218;14.322;2024-03-17T00:08:51;3.22;;;1.58;;
80746;SDS011;76868;50.218;14.322;2024-03-17T00:11:17;2.25;;;1.80;;
80746;SDS011;76868;50.218;14.322;2024-03-17T00:13:42;2.50;;;1.60;;
80746;SDS011;76868;50.218;14.322;2024-03-17T00:16:07;2.90;;;1.73;;
80746;SDS011;76868;50.218;14.322;2024-03-17T00:18:33;2.35;;;1.70;;
80746;SDS011;76868;50.218;14.322;2024-03-17T00:20:59;2.72;;;1.75;;
80746;SDS011;76868;50.218;14.322;2024-03-17T00:23:24;2.55;;;1.70;;
80746;SDS011;76868;50.218;14.322;2024-03-17T00:25:50;2.55;;;1.60;;
80746;SDS011;76868;50.218;14.322;2024-03-17T00:28:16;3.92;;;2.15;;
80746;SDS011;76868;50.218;14.322;2024-03-17T00:30:41;2.88;;;1.52;;
80746;SDS011;76868;50.218;14.322;2024-03-17T00:33:06;2.60;;;1.35;;
80746;SDS011;76868;50.218;14.322;2024-03-17T00:35:32;3.08;;;1.73;;
80746;SDS011;76868;50.218;14.322;2024-03-17T00:37:58;6.25;;;1.45;;
80746;SDS011;76868;50.218;14.322;2024-03-17T00:40:23;2.22;;;1.27;;
80746;SDS011;76868;50.218;14.322;2024-03-17T00:42:49;2.67;;;1.63;;
80746;SDS011;76868;50.218;14.322;2024-03-17T00:45:14;2.70;;;1.70;;
80746;SDS011;76868;50.218;14.322;2024-03-17T00:47:40;3.33;;;1.63;;
80746;SDS011;76868;50.218;14.322;2024-03-17T00:50:05;2.55;;;1.42;;
80746;SDS011;76868;50.218;14.322;2024-03-17T00:52:34;3.13;;;1.52;;
80746;SDS011;76868;50.218;14.322;2024-03-17T00:55:00;2.05;;;1.45;;
80746;SDS011;76868;50.218;14.322;2024-03-17T00:57:25;2.10;;;1.25;;
80746;SDS011;76868;50.218;14.322;2024-03-17T00:59:51;2.30;;;1.65;;
80746;SDS011;76868;50.218;14.322;2024-03-17T01:02:17;1.90;;;1.33;;
80746;SDS011;76868;50.218;14.322;2024-03-17T01:04:43;2.95;;;1.60;;
80746;SDS011;76868;50.218;14.322;2024-03-17T01:07:09;2.65;;;1.58;;
80746;SDS011;76868;50.218;14.322;2024-03-17T01:09:35;2.28;;;1.58;;
80746;SDS011;76868;50.218;14.322;2024-03-17T01:12:00;2.47;;;1.60;;
80746;SDS011;76868;50.218;14.322;2024-03-17T01:14:26;2.13;;;1.50;;
80746;SDS011;76868;50.218;14.322;2024-03-17T01:16:52;2.13;;;1.33;;
80746;SDS011;76868;50.218;14.322;2024-03-17T01:19:18;2.55;;;1.38;;
80746;SDS011;76868;50.218;14.322;2024-03-17T01:21:43;2.15;;;1.45;;
80746;SDS011;76868;50.218;14.322;2024-03-17T01:24:09;2.70;;;1.40;;
80746;SDS011;76868;50.218;14.322;2024-03-17T01:26:34;2.25;;;1.45;;
80746;SDS011;76868;50.218;14.322;2024-03-17T01:31:26;2.80;;;1.80;;
80746;SDS011;76868;50.218;14.322;2024-03-17T01:33:52;2.33;;;1.50;;
80746;SDS011;76868;50.218;14.322;2024-03-17T01:36:17;1.70;;;1.40;;
80746;SDS011;76868;50.218;14.322;2024-03-17T01:38:42;2.13;;;1.30;;
80746;SDS011;76868;50.218;14.322;2024-03-17T01:41:08;1.77;;;1.35;;
80746;SDS011;76868;50.218;14.322;2024-03-17T01:43:33;2.38;;;1.20;;
80746;SDS011;76868;50.218;14.322;2024-03-17T01:45:58;2.33;;;1.55;;
80746;SDS011;76868;50.218;14.322;2024-03-17T01:48:25;2.08;;;1.45;;
80746;SDS011;76868;50.218;14.322;2024-03-17T01:50:52;2.90;;;1.50;;
80746;SDS011;76868;50.218;14.322;2024-03-17T01:53:20;2.65;;;1.50;;
80746;SDS011;76868;50.218;14.322;2024-03-17T01:55:46;2.42;;;1.50;;
80746;SDS011;76868;50.218;14.322;2024-03-17T01:58:12;2.28;;;1.40;;
80746;SDS011;76868;50.218;14.322;2024-03-17T02:03:04;1.80;;;1.10;;
80746;SDS011;76868;50.218;14.322;2024-03-17T02:05:31;3.53;;;1.38;;
80746;SDS011;76868;50.218;14.322;2024-03-17T02:07:56;2.95;;;1.38;;
80746;SDS011;76868;50.218;14.322;2024-03-17T02:10:22;1.95;;;1.33;;
80746;SDS011;76868;50.218;14.322;2024-03-17T02:12:47;1.98;;;1.35;;
80746;SDS011;76868;50.218;14.322;2024-03-17T02:15:14;2.17;;;1.60;;
80746;SDS011;76868;50.218;14.322;2024-03-17T02:17:39;3.20;;;1.27;;
80746;SDS011;76868;50.218;14.322;2024-03-17T02:20:05;2.88;;;1.20;;
80746;SDS011;76868;50.218;14.322;2024-03-17T02:22:36;1.40;;;1.08;;
80746;SDS011;76868;50.218;14.322;2024-03-17T02:25:02;1.83;;;1.20;;
80746;SDS011;76868;50.218;14.322;2024-03-17T02:27:27;1.70;;;1.27;;
80746;SDS011;76868;50.218;14.322;2024-03-17T02:29:53;2.15;;;1.10;;
80746;SDS011;76868;50.218;14.322;2024-03-17T02:32:18;1.95;;;1.25;;
80746;SDS011;76868;50.218;14.322;2024-03-17T02:34:47;1.70;;;1.30;;
80746;SDS011;76868;50.218;14.322;2024-03-17T02:37:12;1.70;;;0.93;;
80746;SDS011;76868;50.218;14.322;2024-03-17T02:39:37;2.20;;;1.40;;
80746;SDS011;76868;50.218;14.322;2024-03-17T02:42:04;1.73;;;1.08;;
80746;SDS011;76868;50.218;14.322;2024-03-17T02:44:31;2.05;;;1.20;;
80746;SDS011;76868;50.218;14.322;2024-03-17T02:46:58;2.08;;;1.27;;
80746;SDS011;76868;50.218;14.322;2024-03-17T02:49:27;1.52;;;0.95;;
80746;SDS011;76868;50.218;14.322;2024-03-17T02:52:00;1.85;;;1.13;;
80746;SDS011;76868;50.218;14.322;2024-03-17T02:54:25;2.05;;;1.30;;
80746;SDS011;76868;50.218;14.322;2024-03-17T02:56:51;1.70;;;1.10;;
80746;SDS011;76868;50.218;14.322;2024-03-17T02:59:16;1.90;;;1.40;;
80746;SDS011;76868;50.218;14.322;2024-03-17T03:01:42;1.58;;;1.27;;
80746;SDS011;76868;50.218;14.322;2024-03-17T03:04:07;3.13;;;1.33;;
80746;SDS011;76868;50.218;14.322;2024-03-17T03:06:33;1.48;;;1.10;;
80746;SDS011;76868;50.218;14.322;2024-03-17T03:08:58;2.05;;;1.35;;
80746;SDS011;76868;50.218;14.322;2024-03-17T03:11:24;1.98;;;1.00;;
80746;SDS011;76868;50.218;14.322;2024-03-17T03:13:49;1.80;;;1.30;;
80746;SDS011;76868;50.218;14.322;2024-03-17T03:16:14;2.22;;;1.20;;
80746;SDS011;76868;50.218;14.322;2024-03-17T03:18:40;1.83;;;1.25;;
80746;SDS011;76868;50.218;14.322;2024-03-17T03:21:06;1.88;;;1.42;;
80746;SDS011;76868;50.218;14.322;2024-03-17T03:23:32;1.50;;;1.13;;
80746;SDS011;76868;50.218;14.322;2024-03-17T03:25:58;1.50;;;1.17;;
80746;SDS011;76868;50.218;14.322;2024-03-17T03:28:25;1.67;;;1.13;;
80746;SDS011;76868;50.218;14.322;2024-03-17T03:30:51;1.98;;;0.98;;
80746;SDS011;76868;50.218;14.322;2024-03-17T03:33:18;1.65;;;1.05;;
80746;SDS011;76868;50.218;14.322;2024-03-17T03:35:44;2.58;;;1.40;;
80746;SDS011;76868;50.218;14.322;2024-03-17T03:38:10;2.10;;;1.13;;
80746;SDS011;76868;50.218;14.322;2024-03-17T03:40:36;1.85;;;1.05;;
80746;SDS011;76868;50.218;14.322;2024-03-17T03:43:01;2.75;;;1.10;;
80746;SDS011;76868;50.218;14.322;2024-03-17T03:47:52;1.73;;;0.80;;
80746;SDS011;76868;50.218;14.322;2024-03-17T03:50:19;1.13;;;0.88;;
80746;SDS011;76868;50.218;14.322;2024-03-17T03:52:48;1.33;;;0.82;;
80746;SDS011;76868;50.218;14.322;2024-03-17T03:55:15;1.70;;;1.20;;
80746;SDS011;76868;50.218;14.322;2024-03-17T03:57:41;1.25;;;0.90;;
80746;SDS011;76868;50.218;14.322;2024-03-17T04:00:07;2.50;;;1.10;;
80746;SDS011;76868;50.218;14.322;2024-03-17T04:02:40;1.67;;;1.20;;
80746;SDS011;76868;50.218;14.322;2024-03-17T04:05:08;1.35;;;1.08;;
80746;SDS011;76868;50.218;14.322;2024-03-17T04:07:34;1.58;;;1.02;;
80746;SDS011;76868;50.218;14.322;2024-03-17T04:12:26;1.75;;;0.88;;
80746;SDS011;76868;50.218;14.322;2024-03-17T04:14:52;1.70;;;1.23;;
80746;SDS011;76868;50.218;14.322;2024-03-17T04:17:21;1.48;;;0.90;;
80746;SDS011;76868;50.218;14.322;2024-03-17T04:19:47;2.42;;;1.20;;
80746;SDS011;76868;50.218;14.322;2024-03-17T04:22:13;1.92;;;1.00;;
80746;SDS011;76868;50.218;14.322;2024-03-17T04:24:39;1.40;;;0.90;;
80746;SDS011;76868;50.218;14.322;2024-03-17T04:27:05;1.27;;;0.90;;
80746;SDS011;76868;50.218;14.322;2024-03-17T04:31:55;1.90;;;0.83;;
80746;SDS011;76868;50.218;14.322;2024-03-17T04:34:21;1.58;;;0.85;;
80746;SDS011;76868;50.218;14.322;2024-03-17T04:36:46;1.30;;;0.85;;
80746;SDS011;76868;50.218;14.322;2024-03-17T04:39:12;1.60;;;0.90;;
80746;SDS011;76868;50.218;14.322;2024-03-17T04:44:05;1.65;;;1.27;;
80746;SDS011;76868;50.218;14.322;2024-03-17T04:46:31;1.88;;;1.15;;
80746;SDS011;76868;50.218;14.322;2024-03-17T04:48:57;1.85;;;1.10;;
80746;SDS011;76868;50.218;14.322;2024-03-17T04:51:23;1.10;;;0.77;;
80746;SDS011;76868;50.218;14.322;2024-03-17T04:53:48;1.38;;;1.08;;
80746;SDS011;76868;50.218;14.322;2024-03-17T04:56:13;0.95;;;0.70;;
80746;SDS011;76868;50.218;14.322;2024-03-17T04:58:39;1.20;;;0.90;;
80746;SDS011;76868;50.218;14.322;2024-03-17T05:01:05;1.80;;;0.90;;
80746;SDS011;76868;50.218;14.322;2024-03-17T05:03:34;1.55;;;1.00;;
80746;SDS011;76868;50.218;14.322;2024-03-17T05:08:26;2.00;;;1.02;;
80746;SDS011;76868;50.218;14.322;2024-03-17T05:11:02;1.23;;;0.80;;
80746;SDS011;76868;50.218;14.322;2024-03-17T05:13:32;2.08;;;1.05;;
80746;SDS011;76868;50.218;14.322;2024-03-17T05:15:59;2.22;;;1.13;;
80746;SDS011;76868;50.218;14.322;2024-03-17T05:18:25;1.30;;;0.90;;
80746;SDS011;76868;50.218;14.322;2024-03-17T05:20:57;1.42;;;0.95;;
80746;SDS011;76868;50.218;14.322;2024-03-17T05:23:24;1.50;;;0.90;;
80746;SDS011;76868;50.218;14.322;2024-03-17T05:25:54;1.40;;;1.10;;
80746;SDS011;76868;50.218;14.322;2024-03-17T05:28:20;1.20;;;0.95;;
80746;SDS011;76868;50.218;14.322;2024-03-17T05:30:46;1.73;;;1.23;;
80746;SDS011;76868;50.218;14.322;2024-03-17T05:33:13;1.80;;;1.10;;
80746;SDS011;76868;50.218;14.322;2024-03-17T05:35:38;1.17;;;0.90;;
80746;SDS011;76868;50.218;14.322;2024-03-17T05:38:03;1.25;;;0.77;;
80746;SDS011;76868;50.218;14.322;2024-03-17T05:40:29;1.30;;;0.80;;
80746;SDS011;76868;50.218;14.322;2024-03-17T05:42:55;2.53;;;0.93;;
80746;SDS011;76868;50.218;14.322;2024-03-17T05:45:21;1.73;;;0.80;;
80746;SDS011;76868;50.218;14.322;2024-03-17T05:47:46;1.38;;;0.75;;
80746;SDS011;76868;50.218;14.322;2024-03-17T05:50:11;1.33;;;0.63;;
80746;SDS011;76868;50.218;14.322;2024-03-17T05:52:37;2.13;;;0.90;;
80746;SDS011;76868;50.218;14.322;2024-03-17T05:55:03;1.50;;;0.98;;
80746;SDS011;76868;50.218;14.322;2024-03-17T05:57:28;2.25;;;1.15;;
80746;SDS011;76868;50.218;14.322;2024-03-17T05:59:54;1.67;;;0.93;;
80746;SDS011;76868;50.218;14.322;2024-03-17T06:02:20;1.23;;;0.90;;
80746;SDS011;76868;50.218;14.322;2024-03-17T06:04:46;2.42;;;1.17;;
80746;SDS011;76868;50.218;14.322;2024-03-17T06:07:11;1.20;;;0.80;;
80746;SDS011;76868;50.218;14.322;2024-03-17T06:09:36;1.05;;;0.70;;
80746;SDS011;76868;50.218;14.322;2024-03-17T06:12:02;1.92;;;1.08;;
80746;SDS011;76868;50.218;14.322;2024-03-17T06:14:27;1.67;;;0.82;;
80746;SDS011;76868;50.218;14.322;2024-03-17T06:16:53;1.80;;;0.80;;
80746;SDS011;76868;50.218;14.322;2024-03-17T06:19:18;2.83;;;1.20;;
80746;SDS011;76868;50.218;14.322;2024-03-17T06:21:45;2.75;;;0.60;;
80746;SDS011;76868;50.218;14.322;2024-03-17T06:24:10;2.78;;;0.90;;
80746;SDS011;76868;50.218;14.322;2024-03-17T06:26:36;1.70;;;0.93;;
80746;SDS011;76868;50.218;14.322;2024-03-17T06:29:01;1.30;;;0.80;;
80746;SDS011;76868;50.218;14.322;2024-03-17T06:31:27;1.27;;;0.85;;
80746;SDS011;76868;50.218;14.322;2024-03-17T06:33:52;1.63;;;0.70;;
80746;SDS011;76868;50.218;14.322;2024-03-17T06:36:17;3.42;;;1.27;;
80746;SDS011;76868;50.218;14.322;2024-03-17T06:38:43;3.05;;;0.90;;
80746;SDS011;76868;50.218;14.322;2024-03-17T06:41:11;4.15;;;1.13;;
80746;SDS011;76868;50.218;14.322;2024-03-17T06:43:39;3.47;;;0.98;;
80746;SDS011;76868;50.218;14.322;2024-03-17T06:46:06;3.60;;;1.40;;
80746;SDS011;76868;50.218;14.322;2024-03-17T06:48:32;6.03;;;1.25;;
80746;SDS011;76868;50.218;14.322;2024-03-17T06:53:24;5.05;;;1.50;;
80746;SDS011;76868;50.218;14.322;2024-03-17T06:55:57;2.25;;;0.95;;
80746;SDS011;76868;50.218;14.322;2024-03-17T06:58:24;6.25;;;2.15;;
80746;SDS011;76868;50.218;14.322;2024-03-17T07:00:52;3.67;;;1.63;;
80746;SDS011;76868;50.218;14.322;2024-03-17T07:03:26;4.25;;;1.40;;
80746;SDS011;76868;50.218;14.322;2024-03-17T07:05:53;4.07;;;1.23;;
80746;SDS011;76868;50.218;14.322;2024-03-17T07:08:19;5.63;;;1.30;;
80746;SDS011;76868;50.218;14.322;2024-03-17T07:13:24;2.50;;;1.20;;
80746;SDS011;76868;50.218;14.322;2024-03-17T07:15:50;3.08;;;1.20;;
80746;SDS011;76868;50.218;14.322;2024-03-17T07:18:15;10.10;;;2.17;;
80746;SDS011;76868;50.218;14.322;2024-03-17T07:20:41;7.55;;;1.65;;
80746;SDS011;76868;50.218;14.322;2024-03-17T07:23:06;8.15;;;2.00;;
80746;SDS011;76868;50.218;14.322;2024-03-17T07:25:32;4.93;;;2.03;;
80746;SDS011;76868;50.218;14.322;2024-03-17T07:27:57;8.13;;;3.95;;
80746;SDS011;76868;50.218;14.322;2024-03-17T07:32:48;5.53;;;1.50;;
80746;SDS011;76868;50.218;14.322;2024-03-17T07:35:13;6.28;;;1.83;;
80746;SDS011;76868;50.218;14.322;2024-03-17T07:37:39;6.95;;;1.65;;
80746;SDS011;76868;50.218;14.322;2024-03-17T07:40:05;5.22;;;1.50;;
80746;SDS011;76868;50.218;14.322;2024-03-17T07:42:32;4.43;;;2.10;;
80746;SDS011;76868;50.218;14.322;2024-03-17T07:47:23;4.07;;;1.50;;
80746;SDS011;76868;50.218;14.322;2024-03-17T07:49:48;6.18;;;1.50;;
80746;SDS011;76868;50.218;14.322;2024-03-17T07:52:14;4.75;;;1.40;;
80746;SDS011;76868;50.218;14.322;2024-03-17T07:54:40;4.55;;;1.70;;
80746;SDS011;76868;50.218;14.322;2024-03-17T07:57:05;5.07;;;1.30;;
80746;SDS011;76868;50.218;14.322;2024-03-17T07:59:31;10.25;;;1.80;;
80746;SDS011;76868;50.218;14.322;2024-03-17T08:01:56;7.72;;;1.60;;
80746;SDS011;76868;50.218;14.322;2024-03-17T08:04:22;5.18;;;1.80;;
80746;SDS011;76868;50.218;14.322;2024-03-17T08:06:47;4.22;;;1.63;;
80746;SDS011;76868;50.218;14.322;2024-03-17T08:09:13;6.80;;;2.15;;
80746;SDS011;76868;50.218;14.322;2024-03-17T08:11:38;2.55;;;1.40;;
80746;SDS011;76868;50.218;14.322;2024-03-17T08:14:08;4.97;;;1.83;;
80746;SDS011;76868;50.218;14.322;2024-03-17T08:16:34;6.72;;;1.77;;
80746;SDS011;76868;50.218;14.322;2024-03-17T08:18:59;4.72;;;1.58;;
80746;SDS011;76868;50.218;14.322;2024-03-17T08:21:24;4.47;;;1.42;;
80746;SDS011;76868;50.218;14.322;2024-03-17T08:23:51;4.32;;;1.60;;
80746;SDS011;76868;50.218;14.322;2024-03-17T08:26:16;10.20;;;1.73;;
80746;SDS011;76868;50.218;14.322;2024-03-17T08:28:42;5.28;;;1.70;;
80746;SDS011;76868;50.218;14.322;2024-03-17T08:31:07;5.57;;;1.65;;
80746;SDS011;76868;50.218;14.322;2024-03-17T08:33:33;5.20;;;1.63;;
80746;SDS011;76868;50.218;14.322;2024-03-17T08:38:32;5.32;;;1.55;;
80746;SDS011;76868;50.218;14.322;2024-03-17T08:41:02;4.32;;;1.58;;
80746;SDS011;76868;50.218;14.322;2024-03-17T08:43:29;4.32;;;1.90;;
80746;SDS011;76868;50.218;14.322;2024-03-17T08:45:58;3.47;;;1.30;;
80746;SDS011;76868;50.218;14.322;2024-03-17T08:48:34;3.83;;;1.45;;
80746;SDS011;76868;50.218;14.322;2024-03-17T08:51:01;3.47;;;1.23;;
80746;SDS011;76868;50.218;14.322;2024-03-17T08:53:28;5.15;;;1.80;;
80746;SDS011;76868;50.218;14.322;2024-03-17T08:55:54;2.95;;;1.48;;
80746;SDS011;76868;50.218;14.322;2024-03-17T08:58:20;7.00;;;1.45;;
80746;SDS011;76868;50.218;14.322;2024-03-17T09:00:46;4.25;;;1.40;;
80746;SDS011;76868;50.218;14.322;2024-03-17T09:05:38;4.13;;;1.30;;
80746;SDS011;76868;50.218;14.322;2024-03-17T09:08:05;4.38;;;1.33;;
80746;SDS011;76868;50.218;14.322;2024-03-17T09:10:38;4.25;;;1.40;;
80746;SDS011;76868;50.218;14.322;2024-03-17T09:13:07;2.95;;;1.20;;
80746;SDS011;76868;50.218;14.322;2024-03-17T09:15:38;4.13;;;1.60;;
80746;SDS011;76868;50.218;14.322;2024-03-17T09:18:03;3.25;;;1.38;;
80746;SDS011;76868;50.218;14.322;2024-03-17T09:20:29;4.43;;;1.38;;
80746;SDS011;76868;50.218;14.322;2024-03-17T09:22:54;3.92;;;1.67;;
80746;SDS011;76868;50.218;14.322;2024-03-17T09:27:45;4.75;;;1.52;;
80746;SDS011;76868;50.218;14.322;2024-03-17T09:30:11;3.70;;;1.70;;
80746;SDS011;76868;50.218;14.322;2024-03-17T09:32:37;6.25;;;1.58;;
80746;SDS011;76868;50.218;14.322;2024-03-17T09:35:03;3.55;;;1.33;;
80746;SDS011;76868;50.218;14.322;2024-03-17T09:37:29;4.15;;;1.48;;
80746;SDS011;76868;50.218;14.322;2024-03-17T09:39:56;3.95;;;1.58;;
80746;SDS011;76868;50.218;14.322;2024-03-17T09:42:25;3.40;;;1.80;;
80746;SDS011;76868;50.218;14.322;2024-03-17T09:44:55;6.40;;;1.85;;
80746;SDS011;76868;50.218;14.322;2024-03-17T09:47:22;5.40;;;1.90;;
80746;SDS011;76868;50.218;14.322;2024-03-17T09:49:49;6.03;;;1.77;;
80746;SDS011;76868;50.218;14.322;2024-03-17T09:52:19;1.92;;;1.30;;
80746;SDS011;76868;50.218;14.322;2024-03-17T09:54:47;4.22;;;1.40;;
80746;SDS011;76868;50.218;14.322;2024-03-17T09:59:50;4.72;;;1.33;;
80746;SDS011;76868;50.218;14.322;2024-03-17T10:02:21;3.17;;;1.23;;
80746;SDS011;76868;50.218;14.322;2024-03-17T10:04:47;3.75;;;1.65;;
80746;SDS011;76868;50.218;14.322;2024-03-17T10:07:13;3.60;;;1.50;;
80746;SDS011;76868;50.218;14.322;2024-03-17T10:09:40;5.40;;;1.95;;
80746;SDS011;76868;50.218;14.322;2024-03-17T10:12:23;3.67;;;1.60;;
80746;SDS011;76868;50.218;14.322;2024-03-17T10:14:57;5.15;;;1.70;;
80746;SDS011;76868;50.218;14.322;2024-03-17T10:17:29;4.40;;;1.52;;
80746;SDS011;76868;50.218;14.322;2024-03-17T10:20:10;4.63;;;1.60;;
80746;SDS011;76868;50.218;14.322;2024-03-17T10:22:36;3.75;;;1.80;;
80746;SDS011;76868;50.218;14.322;2024-03-17T10:25:01;3.67;;;1.80;;
80746;SDS011;76868;50.218;14.322;2024-03-17T10:27:27;4.53;;;1.42;;
80746;SDS011;76868;50.218;14.322;2024-03-17T10:29:53;3.15;;;1.30;;
80746;SDS011;76868;50.218;14.322;2024-03-17T10:32:18;3.75;;;1.48;;
80746;SDS011;76868;50.218;14.322;2024-03-17T10:34:47;2.50;;;1.15;;
80746;SDS011;76868;50.218;14.322;2024-03-17T10:39:48;4.10;;;1.63;;
80746;SDS011;76868;50.218;14.322;2024-03-17T10:42:20;3.50;;;2.00;;
80746;SDS011;76868;50.218;14.322;2024-03-17T10:44:49;3.42;;;1.17;;
80746;SDS011;76868;50.218;14.322;2024-03-17T10:47:17;2.70;;;1.50;;
80746;SDS011;76868;50.218;14.322;2024-03-17T10:49:46;3.40;;;1.60;;
80746;SDS011;76868;50.218;14.322;2024-03-17T10:52:17;3.15;;;1.40;;
80746;SDS011;76868;50.218;14.322;2024-03-17T10:54:46;3.00;;;1.63;;
80746;SDS011;76868;50.218;14.322;2024-03-17T10:57:34;4.13;;;1.40;;
80746;SDS011;76868;50.218;14.322;2024-03-17T11:00:14;2.67;;;1.20;;
80746;SDS011;76868;50.218;14.322;2024-03-17T11:02:47;2.53;;;1.30;;
80746;SDS011;76868;50.218;14.322;2024-03-17T11:05:21;2.47;;;1.40;;
80746;SDS011;76868;50.218;14.322;2024-03-17T11:08:00;3.08;;;1.23;;
80746;SDS011;76868;50.218;14.322;2024-03-17T11:10:28;2.63;;;1.20;;
80746;SDS011;76868;50.218;14.322;2024-03-17T11:12:58;2.03;;;1.15;;
80746;SDS011;76868;50.218;14.322;2024-03-17T11:20:34;2.50;;;1.20;;
80746;SDS011;76868;50.218;14.322;2024-03-17T11:23:01;3.15;;;1.25;;
80746;SDS011;76868;50.218;14.322;2024-03-17T11:38:56;2.63;;;1.40;;
80746;SDS011;76868;50.218;14.322;2024-03-17T11:46:40;2.60;;;1.42;;
80746;SDS011;76868;50.218;14.322;2024-03-17T11:49:13;2.42;;;1.42;;
80746;SDS011;76868;50.218;14.322;2024-03-17T11:51:46;2.30;;;1.60;;
80746;SDS011;76868;50.218;14.322;2024-03-17T11:54:15;3.28;;;1.30;;
80746;SDS011;76868;50.218;14.322;2024-03-17T11:59:10;4.32;;;1.23;;
80746;SDS011;76868;50.218;14.322;2024-03-17T12:01:36;2.38;;;1.15;;
80746;SDS011;76868;50.218;14.322;2024-03-17T12:04:04;2.10;;;1.15;;
80746;SDS011;76868;50.218;14.322;2024-03-17T12:06:33;1.95;;;1.08;;
80746;SDS011;76868;50.218;14.322;2024-03-17T12:11:43;2.35;;;1.35;;
80746;SDS011;76868;50.218;14.322;2024-03-17T12:14:15;6.55;;;2.72;;
80746;SDS011;76868;50.218;14.322;2024-03-17T12:19:15;3.85;;;2.58;;
80746;SDS011;76868;50.218;14.322;2024-03-17T12:24:20;3.83;;;2.08;;
80746;SDS011;76868;50.218;14.322;2024-03-17T12:26:49;3.95;;;2.08;;
80746;SDS011;76868;50.218;14.322;2024-03-17T12:31:52;3.13;;;1.80;;
80746;SDS011;76868;50.218;14.322;2024-03-17T12:34:20;3.85;;;1.70;;
80746;SDS011;76868;50.218;14.322;2024-03-17T12:36:46;3.00;;;1.60;;
80746;SDS011;76868;50.218;14.322;2024-03-17T12:44:35;3.03;;;1.40;;
80746;SDS011;76868;50.218;14.322;2024-03-17T12:47:07;2.05;;;1.45;;
80746;SDS011;76868;50.218;14.322;2024-03-17T12:49:33;3.67;;;1.85;;
80746;SDS011;76868;50.218;14.322;2024-03-17T12:51:59;2.85;;;1.75;;
80746;SDS011;76868;50.218;14.322;2024-03-17T12:54:26;2.90;;;1.52;;
80746;SDS011;76868;50.218;14.322;2024-03-17T12:57:03;2.85;;;1.40;;
80746;SDS011;76868;50.218;14.322;2024-03-17T12:59:48;3.38;;;1.42;;
80746;SDS011;76868;50.218;14.322;2024-03-17T13:02:32;5.25;;;1.85;;
80746;SDS011;76868;50.218;14.322;2024-03-17T13:07:33;3.00;;;1.38;;
80746;SDS011;76868;50.218;14.322;2024-03-17T13:09:59;5.80;;;1.75;;
80746;SDS011;76868;50.218;14.322;2024-03-17T13:12:24;4.15;;;1.75;;
80746;SDS011;76868;50.218;14.322;2024-03-17T13:17:15;2.70;;;1.37;;
80746;SDS011;76868;50.218;14.322;2024-03-17T13:19:47;2.85;;;1.75;;
80746;SDS011;76868;50.218;14.322;2024-03-17T13:22:13;3.45;;;1.55;;
80746;SDS011;76868;50.218;14.322;2024-03-17T13:24:38;4.63;;;2.25;;
80746;SDS011;76868;50.218;14.322;2024-03-17T13:29:33;4.03;;;1.70;;
80746;SDS011;76868;50.218;14.322;2024-03-17T13:32:01;4.90;;;1.90;;
80746;SDS011;76868;50.218;14.322;2024-03-17T13:34:27;4.40;;;1.75;;
80746;SDS011;76868;50.218;14.322;2024-03-17T13:39:18;3.83;;;1.63;;
80746;SDS011;76868;50.218;14.322;2024-03-17T13:41:45;2.83;;;1.65;;
80746;SDS011;76868;50.218;14.322;2024-03-17T13:44:12;3.38;;;1.85;;
80746;SDS011;76868;50.218;14.322;2024-03-17T13:46:37;4.10;;;1.75;;
80746;SDS011;76868;50.218;14.322;2024-03-17T13:49:09;5.25;;;2.10;;
80746;SDS011;76868;50.218;14.322;2024-03-17T13:51:35;3.60;;;1.92;;
80746;SDS011;76868;50.218;14.322;2024-03-17T13:54:00;4.35;;;1.73;;
80746;SDS011;76868;50.218;14.322;2024-03-17T13:56:26;5.05;;;1.83;;
80746;SDS011;76868;50.218;14.322;2024-03-17T13:58:51;3.22;;;1.95;;
80746;SDS011;76868;50.218;14.322;2024-03-17T14:01:17;3.88;;;1.80;;
80746;SDS011;76868;50.218;14.322;2024-03-17T14:03:42;2.75;;;2.05;;
80746;SDS011;76868;50.218;14.322;2024-03-17T14:06:08;3.38;;;1.90;;
80746;SDS011;76868;50.218;14.322;2024-03-17T14:08:34;3.08;;;1.58;;
80746;SDS011;76868;50.218;14.322;2024-03-17T14:11:00;4.15;;;1.80;;
80746;SDS011;76868;50.218;14.322;2024-03-17T14:15:51;3.80;;;1.70;;
80746;SDS011;76868;50.218;14.322;2024-03-17T14:18:20;3.70;;;1.80;;
80746;SDS011;76868;50.218;14.322;2024-03-17T14:20:46;5.38;;;2.38;;
80746;SDS011;76868;50.218;14.322;2024-03-17T14:23:11;4.18;;;1.73;;
80746;SDS011;76868;50.218;14.322;2024-03-17T14:28:04;5.38;;;2.38;;
80746;SDS011;76868;50.218;14.322;2024-03-17T14:30:30;3.88;;;2.00;;
80746;SDS011;76868;50.218;14.322;2024-03-17T14:35:21;5.43;;;2.03;;
80746;SDS011;76868;50.218;14.322;2024-03-17T14:37:47;3.53;;;2.20;;
80746;SDS011;76868;50.218;14.322;2024-03-17T14:40:14;4.70;;;2.17;;
80746;SDS011;76868;50.218;14.322;2024-03-17T14:42:46;4.75;;;1.98;;
80746;SDS011;76868;50.218;14.322;2024-03-17T14:47:37;5.10;;;2.30;;
80746;SDS011;76868;50.218;14.322;2024-03-17T14:50:04;3.70;;;2.67;;
80746;SDS011;76868;50.218;14.322;2024-03-17T14:52:30;3.55;;;2.05;;
80746;SDS011;76868;50.218;14.322;2024-03-17T14:54:55;4.82;;;2.15;;
80746;SDS011;76868;50.218;14.322;2024-03-17T14:57:21;5.20;;;2.22;;
80746;SDS011;76868;50.218;14.322;2024-03-17T15:02:12;5.43;;;2.10;;
80746;SDS011;76868;50.218;14.322;2024-03-17T15:04:37;3.55;;;1.77;;
80746;SDS011;76868;50.218;14.322;2024-03-17T15:07:03;4.78;;;2.47;;
80746;SDS011;76868;50.218;14.322;2024-03-17T15:09:28;4.88;;;2.13;;
80746;SDS011;76868;50.218;14.322;2024-03-17T15:11:54;4.20;;;2.30;;
80746;SDS011;76868;50.218;14.322;2024-03-17T15:16:45;3.60;;;2.30;;
80746;SDS011;76868;50.218;14.322;2024-03-17T15:19:10;4.70;;;2.40;;
80746;SDS011;76868;50.218;14.322;2024-03-17T15:21:36;4.68;;;1.83;;
80746;SDS011;76868;50.218;14.322;2024-03-17T15:24:01;4.50;;;2.22;;
80746;SDS011;76868;50.218;14.322;2024-03-17T15:26:31;4.47;;;2.35;;
80746;SDS011;76868;50.218;14.322;2024-03-17T15:28:57;4.78;;;2.13;;
80746;SDS011;76868;50.218;14.322;2024-03-17T15:31:28;3.92;;;2.17;;
80746;SDS011;76868;50.218;14.322;2024-03-17T15:33:54;4.60;;;1.77;;
80746;SDS011;76868;50.218;14.322;2024-03-17T15:36:22;5.60;;;2.00;;
80746;SDS011;76868;50.218;14.322;2024-03-17T15:38:49;4.60;;;2.20;;
80746;SDS011;76868;50.218;14.322;2024-03-17T15:41:15;5.22;;;1.83;;
80746;SDS011;76868;50.218;14.322;2024-03-17T15:43:41;3.75;;;2.10;;
80746;SDS011;76868;50.218;14.322;2024-03-17T15:46:16;3.65;;;1.75;;
80746;SDS011;76868;50.218;14.322;2024-03-17T15:48:43;5.32;;;2.47;;
80746;SDS011;76868;50.218;14.322;2024-03-17T15:51:10;5.07;;;2.33;;
80746;SDS011;76868;50.218;14.322;2024-03-17T15:53:35;3.05;;;1.88;;
80746;SDS011;76868;50.218;14.322;2024-03-17T15:56:01;3.80;;;1.95;;
80746;SDS011;76868;50.218;14.322;2024-03-17T15:58:28;4.65;;;1.88;;
80746;SDS011;76868;50.218;14.322;2024-03-17T16:00:54;3.17;;;2.13;;
80746;SDS011;76868;50.218;14.322;2024-03-17T16:03:22;4.07;;;2.22;;
80746;SDS011;76868;50.218;14.322;2024-03-17T16:05:53;4.75;;;2.10;;
80746;SDS011;76868;50.218;14.322;2024-03-17T16:08:19;3.00;;;1.70;;
80746;SDS011;76868;50.218;14.322;2024-03-17T16:10:57;4.35;;;1.80;;
80746;SDS011;76868;50.218;14.322;2024-03-17T16:13:24;6.47;;;2.55;;
80746;SDS011;76868;50.218;14.322;2024-03-17T16:15:51;4.15;;;2.13;;
80746;SDS011;76868;50.218;14.322;2024-03-17T16:18:19;4.20;;;1.60;;
80746;SDS011;76868;50.218;14.322;2024-03-17T16:23:12;4.45;;;1.98;;